Hlavní strana
METAR-TAF:

METAR-TAF

Letiště :

Recife, Pernambuco, Brazílie

zeměpisná šířka: 08-08S, zeměpisná délka: 034-55W, výška: 19 m

Aktuální stav počasí

Zpráva byla vytvořena před 45 minutami, v 16:00 UTC
Jihovýchodní vítr 13 kt
Teplota 27°C
Vlhkost vzduchu 74%
Tlak 1015 hPa
Viditelnost 10 km a více
Oblačno až skoro zataženo ve výšce 2000 ft
Polojasno ve výšce 6000 ft
přeháňky v blízkosti

METAR: SBRF 191600Z 14013KT 9999 VCSH BKN020 SCT060 27/22 Q1015

Čas: 13:45 (16:45 UTC)

Předpověď počasí

Zpráva byla vytvořena před 6 hodinami a 45 minutami, v 10:00 UTC
Předpověď platná od 19 v 12 UTC do 20 v 12 UTC
Východojihovýchodní vítr 12 kt
Viditelnost: 8000 m
Polojasno ve výšce 1700 ft
Polojasno ve výšce 4000 ft
Pravděpodobnost 30% :
Dočasný
od 19 v 12 UTC do 19 v 14 UTC
Viditelnost: 5000 m
Polojasno ve výšce 1200 ft
Oblačno až skoro zataženo ve výšce 1700 ft
dešťové přeháňky

TAF: SBRF 191000Z 1912/2012 12012KT 8000 SCT017 SCT040 TX28/1915Z TN25/2008Z PROB30 TEMPO 1912/1914 5000 SHRA SCT012 BKN017 RMK PEU

Stav a předpovědi počasí z více než 4 000 letišť (zprávy METAR a TAF).

Červené a žluté tečky na mapě představují dostupné meteorologické stanice.

Když kurzor umístíte na tečku, zobrazí se název stanice.

Pak kliknutím zobrazíte stav a předpověď počasí.

Chcete-li změnit mapu, kliknutím na zelené tlačítko se znaménkem +mapu přiblížíte, kliknutím na zelené tlačítko se znaménkem – mapu oddálíte a kliknutím na zelené šipky přejdete na sousední mapy.


METAR-TAF: